Time;durP1;ratioP1;P1;durP2;ratioP2;P2;SDS_P1;SDS_P2;PMS_P1;PMS_P2;Temp;Humidity;BMP_temperature;BMP_pressure;BME280_temperature;BME280_humidity;BME280_pressure;Samples;Min_cycle;Max_cycle;Signal;HPM_P1;HPM_P2
2022/04/02 00:01:19;;;;;;;;;21.25;19.75;;;;;2.69;83.75;100525.91;5056578;28;45287;-69
2022/04/02 00:03:44;;;;;;;;;19.50;16.25;;;;;2.63;83.17;100528.56;5056337;28;45276;-66
2022/04/02 00:06:10;;;;;;;;;19.25;16.25;;;;;2.58;84.19;100533.78;5037768;28;46041;-65
2022/04/02 00:08:35;;;;;;;;;20.50;17.00;;;;;2.55;83.87;100536.41;5055833;28;45366;-62
2022/04/02 00:11:01;;;;;;;;;21.75;17.50;;;;;2.49;83.02;100536.44;5055983;28;45383;-63
2022/04/02 00:13:26;;;;;;;;;17.75;14.25;;;;;2.45;83.02;100534.75;5038397;28;45323;-66
2022/04/02 00:15:52;;;;;;;;;19.50;17.00;;;;;2.44;84.39;100536.50;5055580;28;46311;-68
2022/04/02 00:18:17;;;;;;;;;13.75;13.75;;;;;2.42;83.53;100534.78;5055650;28;45471;-60
2022/04/02 00:20:43;;;;;;;;;16.75;14.25;;;;;2.38;84.03;100535.66;5037862;28;45491;-62
2022/04/02 00:25:52;;;;;;;;;17.50;13.00;;;;;2.38;84.67;100538.25;5055762;28;45382;-66
2022/04/02 00:28:17;;;;;;;;;17.50;15.00;;;;;2.37;82.88;100545.19;5055620;28;45399;-70
2022/04/02 00:30:43;;;;;;;;;11.00;9.75;;;;;2.36;82.56;100543.47;5054813;28;45786;-69
2022/04/02 00:33:09;;;;;;;;;13.75;11.25;;;;;2.37;83.76;100542.59;5056300;28;45414;-72
2022/04/02 00:35:34;;;;;;;;;13.25;12.25;;;;;2.36;83.27;100533.09;5055865;28;46126;-67
2022/04/02 00:37:59;;;;;;;;;12.75;10.25;;;;;2.36;79.74;100543.47;5056323;28;45333;-65
2022/04/02 00:40:25;;;;;;;;;10.75;8.75;;;;;2.38;81.51;100541.72;5055923;28;45305;-64
2022/04/02 00:42:50;;;;;;;;;12.50;9.50;;;;;2.38;78.32;100538.25;5056054;28;46455;-64
2022/04/02 00:45:16;;;;;;;;;10.25;9.00;;;;;2.41;80.84;100536.50;5037954;28;45258;-70
2022/04/02 00:47:41;;;;;;;;;9.00;9.00;;;;;2.43;80.86;100531.28;5055811;28;45419;-66
2022/04/02 00:50:07;;;;;;;;;9.00;9.00;;;;;2.42;80.30;100533.06;5055979;28;45334;-70
2022/04/02 00:52:33;;;;;;;;;11.00;9.75;;;;;2.41;78.65;100531.31;5055901;28;45360;-69
2022/04/02 00:54:58;;;;;;;;;9.75;9.75;;;;;2.40;79.91;100533.91;5055777;28;45269;-67
2022/04/02 00:57:24;;;;;;;;;9.75;9.75;;;;;2.40;78.96;100533.91;5055301;28;45244;-70
2022/04/02 00:59:50;;;;;;;;;6.25;6.00;;;;;2.34;75.41;100524.47;5037883;28;45447;-66
2022/04/02 01:02:18;;;;;;;;;11.25;10.00;;;;;2.35;79.24;100528.78;5056235;28;45374;-68
2022/04/02 01:04:45;;;;;;;;;9.50;6.50;;;;;2.32;79.63;100534.84;5056009;28;46291;-65
2022/04/02 01:07:10;;;;;;;;;8.25;8.25;;;;;2.32;76.98;100528.78;5037645;28;45269;-66
2022/04/02 01:09:36;;;;;;;;;8.00;6.50;;;;;2.30;78.20;100525.34;5055924;28;45209;-67
2022/04/02 01:12:01;;;;;;;;;9.00;8.25;;;;;2.26;78.19;100516.72;5056438;28;45320;-71
2022/04/02 01:14:26;;;;;;;;;6.00;6.00;;;;;2.24;78.91;100523.66;5055745;28;45198;-73
2022/04/02 01:16:52;;;;;;;;;7.00;7.00;;;;;2.22;79.31;100524.53;5055540;28;45338;-67
2022/04/02 01:19:17;;;;;;;;;9.50;8.50;;;;;2.17;75.22;100522.84;5055731;28;45241;-71
2022/04/02 01:21:45;;;;;;;;;9.25;8.75;;;;;2.15;79.10;100522.00;5055593;28;45505;-69
2022/04/02 01:24:10;;;;;;;;;8.75;8.75;;;;;2.10;75.26;100515.94;5055243;28;46150;-62
2022/04/02 01:26:36;;;;;;;;;8.50;8.50;;;;;2.04;77.23;100513.38;5054821;28;45317;-66
2022/04/02 01:29:02;;;;;;;;;7.00;6.00;;;;;2.05;78.20;100525.47;5055435;28;45412;-63
2022/04/02 01:31:28;;;;;;;;;6.50;5.75;;;;;2.03;77.92;100527.22;5055928;28;45553;-69
2022/04/02 01:33:54;;;;;;;;;5.00;5.00;;;;;1.99;75.45;100517.72;5054914;28;45462;-72
2022/04/02 01:36:20;;;;;;;;;9.00;5.00;;;;;1.97;78.10;100524.66;5055001;28;45632;-66
2022/04/02 01:38:46;;;;;;;;;9.25;6.25;;;;;1.90;76.50;100524.69;5055306;28;45294;-66
2022/04/02 01:41:13;;;;;;;;;8.25;7.00;;;;;1.91;78.46;100538.56;5056447;28;45225;-67
2022/04/02 01:43:39;;;;;;;;;8.00;5.00;;;;;1.88;78.39;100531.63;5058281;28;45659;-68
2022/04/02 01:46:05;;;;;;;;;4.50;4.50;;;;;1.88;77.07;100534.22;5040390;28;45411;-66
2022/04/02 01:48:32;;;;;;;;;8.50;7.00;;;;;1.84;76.26;100532.50;5058720;28;45370;-66
2022/04/02 01:50:58;;;;;;;;;6.50;5.00;;;;;1.82;77.60;100539.44;5058795;28;45398;-66
2022/04/02 01:53:24;;;;;;;;;9.00;7.25;;;;;1.80;76.97;100546.38;5040324;28;45707;-62
2022/04/02 01:55:50;;;;;;;;;7.25;5.00;;;;;1.76;76.79;100536.88;5058223;28;45420;-66
2022/04/02 01:58:17;;;;;;;;;5.50;5.50;;;;;1.75;79.29;100543.81;5058467;28;45525;-66
2022/04/02 02:00:43;;;;;;;;;5.00;5.00;;;;;1.75;77.75;100550.72;5058176;28;45561;-69
2022/04/02 02:03:09;;;;;;;;;6.25;5.75;;;;;1.73;78.23;100557.63;5058179;28;45376;-72
2022/04/02 02:05:35;;;;;;;;;5.50;3.50;;;;;1.71;77.69;100555.06;5058498;28;45182;-72
2022/04/02 02:08:02;;;;;;;;;7.25;5.50;;;;;1.69;77.16;100563.72;5040483;28;45520;-68
2022/04/02 02:10:28;;;;;;;;;9.00;7.25;;;;;1.68;77.96;100549.00;5058377;28;45534;-64
2022/04/02 02:12:53;;;;;;;;;5.50;4.75;;;;;1.63;75.01;100561.13;5056708;28;46968;-64
2022/04/02 02:15:19;;;;;;;;;7.75;7.50;;;;;1.65;76.93;100570.66;5057959;28;45510;-71
2022/04/02 02:17:49;;;;;;;;;8.50;7.25;;;;;1.62;78.65;100564.59;5023626;28;45363;-68
2022/04/02 02:20:16;;;;;;;;;8.00;6.50;;;;;1.60;79.65;100562.03;5058717;28;45326;-67
2022/04/02 02:22:43;;;;;;;;;7.00;7.00;;;;;1.59;79.49;100566.34;5057749;28;45454;-69
2022/04/02 02:25:13;;;;;;;;;5.00;5.00;;;;;1.55;78.95;100551.66;5057600;28;45458;-66
2022/04/02 02:27:40;;;;;;;;;8.50;7.00;;;;;1.55;78.42;100558.56;5058136;28;45348;-69
2022/04/02 02:30:07;;;;;;;;;5.00;5.00;;;;;1.53;76.08;100558.56;5040349;28;45315;-69
2022/04/02 02:32:36;;;;;;;;;5.00;5.00;;;;;1.52;78.73;100569.81;5039854;28;46951;-69
2022/04/02 02:38:09;;;;;;;;;4.75;4.00;;;;;1.48;78.83;100549.06;5057702;28;45238;-65
2022/04/02 02:40:35;;;;;;;;;10.50;7.50;;;;;1.45;77.98;100562.94;5058116;28;45518;-70
2022/04/02 02:43:01;;;;;;;;;5.00;5.00;;;;;1.42;78.29;100562.94;5057594;28;46645;-66
2022/04/02 02:45:27;;;;;;;;;8.00;8.00;;;;;1.40;78.84;100564.66;5058055;28;45280;-66
2022/04/02 02:47:53;;;;;;;;;8.75;5.25;;;;;1.40;78.40;100582.81;5039489;28;45327;-67
2022/04/02 02:50:19;;;;;;;;;9.00;8.00;;;;;1.37;78.61;100577.63;5058149;28;45601;-70
2022/04/02 02:52:45;;;;;;;;;7.75;7.75;;;;;1.31;77.11;100563.81;5056809;28;45397;-68
2022/04/02 02:55:10;;;;;;;;;7.50;6.25;;;;;1.31;78.17;100583.69;5055992;28;45579;-69
2022/04/02 02:57:43;;;;;;;;;5.50;5.50;;;;;1.29;78.48;100573.34;5058073;28;45427;-63
2022/04/02 03:00:10;;;;;;;;;5.00;5.00;;;;;1.28;75.46;100578.50;5056161;28;45600;-66
2022/04/02 03:02:39;;;;;;;;;9.75;8.75;;;;;1.26;78.47;100583.72;5057401;28;46096;-68
2022/04/02 03:05:12;;;;;;;;;6.00;4.00;;;;;1.25;77.17;100583.69;5057533;28;45246;-64
2022/04/02 03:07:38;;;;;;;;;6.25;6.00;;;;;1.22;79.25;100576.81;5057621;28;45344;-68
2022/04/02 03:10:05;;;;;;;;;15.50;9.75;;;;;1.20;79.42;100591.50;5057963;28;45515;-68
2022/04/02 03:12:30;;;;;;;;;61.33;50.67;;;;;1.19;78.42;100596.66;5056991;28;45460;-65
2022/04/02 03:14:56;;;;;;;;;33.50;32.50;;;;;1.14;78.62;100599.28;5057027;28;45299;-69
2022/04/02 03:17:21;;;;;;;;;31.50;31.00;;;;;1.13;78.38;100587.19;5057081;28;45503;-67
2022/04/02 03:19:47;;;;;;;;;10.00;10.00;;;;;1.13;79.88;100597.53;5057478;28;45263;-67
2022/04/02 03:22:12;;;;;;;;;47.25;40.00;;;;;1.07;80.52;100593.22;5038717;28;47263;-65
2022/04/02 03:24:37;;;;;;;;;79.00;59.33;;;;;1.08;80.60;100600.13;5057049;28;45374;-67
2022/04/02 03:27:04;;;;;;;;;22.25;17.00;;;;;1.08;79.95;100604.47;5039097;28;45392;-69
2022/04/02 03:29:30;;;;;;;;;9.50;8.25;;;;;1.05;79.36;100597.53;5057474;28;45508;-66
2022/04/02 03:31:55;;;;;;;;;11.25;8.50;;;;;1.04;78.19;100600.13;5056603;28;45329;-68
2022/04/02 03:34:21;;;;;;;;;10.00;8.75;;;;;1.00;78.80;100599.28;5056975;28;45308;-68
2022/04/02 03:36:46;;;;;;;;;10.00;8.25;;;;;0.98;78.91;100601.84;5055761;28;45359;-69
2022/04/02 03:39:12;;;;;;;;;8.00;8.00;;;;;0.93;75.08;100605.31;5038884;28;45680;-70
2022/04/02 03:41:37;;;;;;;;;8.00;8.00;;;;;0.94;79.73;100602.72;5057056;28;46335;-68
2022/04/02 03:44:03;;;;;;;;;10.00;10.00;;;;;0.91;78.59;100602.72;5056944;28;45209;-68
2022/04/02 03:49:13;;;;;;;;;10.25;9.00;;;;;0.92;79.00;100601.84;5056788;28;45353;-70
2022/04/02 03:51:39;;;;;;;;;10.00;8.25;;;;;0.92;80.46;100608.78;5056762;28;45292;-67
2022/04/02 03:54:04;;;;;;;;;8.00;8.00;;;;;0.89;79.26;100599.25;5056386;28;45188;-65
2022/04/02 03:56:30;;;;;;;;;7.00;7.00;;;;;0.89;78.41;100599.25;5056710;28;45346;-64
2022/04/02 03:58:55;;;;;;;;;11.25;8.50;;;;;0.87;81.06;100606.16;5057426;28;45659;-69
2022/04/02 04:01:22;;;;;;;;;9.00;7.50;;;;;0.85;80.36;100606.19;5038235;28;47164;-63
2022/04/02 04:03:47;;;;;;;;;9.00;8.00;;;;;0.85;80.84;100607.88;5056634;28;45420;-61
2022/04/02 04:06:12;;;;;;;;;12.75;10.00;;;;;0.84;81.73;100609.63;5057086;28;45304;-65
2022/04/02 04:08:40;;;;;;;;;8.00;8.00;;;;;0.83;80.24;100610.50;5057197;28;45333;-67
2022/04/02 04:11:06;;;;;;;;;11.00;6.75;;;;;0.82;80.73;100608.78;5056729;28;47094;-66
2022/04/02 04:13:31;;;;;;;;;8.75;8.75;;;;;0.80;80.30;100609.63;5056467;28;45213;-68
2022/04/02 04:15:57;;;;;;;;;7.75;7.75;;;;;0.79;80.70;100620.84;5039090;28;45415;-69
2022/04/02 04:18:23;;;;;;;;;10.25;7.75;;;;;0.78;79.28;100619.13;5056535;28;45491;-64
2022/04/02 04:20:49;;;;;;;;;12.75;10.00;;;;;0.76;80.87;100624.31;5056112;28;46377;-66
2022/04/02 04:23:15;;;;;;;;;9.00;9.00;;;;;0.75;81.02;100625.16;5056234;28;45447;-67
2022/04/02 04:25:40;;;;;;;;;14.75;10.25;;;;;0.72;80.99;100620.84;5038945;28;45520;-70
2022/04/02 04:28:05;;;;;;;;;10.25;10.00;;;;;0.73;80.17;100634.66;5056919;28;45520;-64
2022/04/02 04:30:31;;;;;;;;;11.50;9.75;;;;;0.72;80.64;100638.13;5038295;28;48096;-65
2022/04/02 04:32:57;;;;;;;;;10.25;8.50;;;;;0.70;81.21;100634.66;5056432;28;45444;-65
2022/04/02 04:35:23;;;;;;;;;14.25;10.00;;;;;0.69;81.33;100636.38;5056029;28;45359;-68
2022/04/02 04:37:51;;;;;;;;;10.00;10.00;;;;;0.69;81.25;100645.88;5056390;28;45609;-66
2022/04/02 04:40:17;;;;;;;;;14.00;9.00;;;;;0.69;82.16;100641.53;5055539;28;46175;-66
2022/04/02 04:42:43;;;;;;;;;12.50;11.25;;;;;0.69;81.75;100654.50;5056329;28;45330;-70
2022/04/02 04:45:08;;;;;;;;;10.50;10.00;;;;;0.68;82.25;100652.75;5056471;28;45348;-69
2022/04/02 04:47:34;;;;;;;;;9.25;9.25;;;;;0.68;80.97;100663.13;5056366;28;45580;-69
2022/04/02 04:49:59;;;;;;;;;13.00;9.00;;;;;0.69;81.81;100657.06;5056110;28;46158;-70
2022/04/02 04:52:25;;;;;;;;;9.75;9.75;;;;;0.68;80.77;100657.94;5055673;28;45371;-68
2022/04/02 04:54:50;;;;;;;;;11.50;10.00;;;;;0.69;80.54;100674.34;5055883;28;45456;-63
2022/04/02 04:57:15;;;;;;;;;8.25;8.25;;;;;0.68;81.08;100659.69;5055994;28;45338;-66
2022/04/02 04:59:41;;;;;;;;;7.75;7.25;;;;;0.68;81.42;100663.13;5055735;28;45708;-64
2022/04/02 05:02:06;;;;;;;;;13.25;9.25;;;;;0.66;81.74;100662.25;5037447;28;45378;-65
2022/04/02 05:04:32;;;;;;;;;14.25;11.25;;;;;0.66;80.87;100672.59;5055784;28;45348;-69
2022/04/02 05:06:58;;;;;;;;;10.50;8.00;;;;;0.65;81.58;100670.03;5055908;28;45468;-67
2022/04/02 05:09:24;;;;;;;;;15.00;9.50;;;;;0.65;81.99;100681.25;5055550;28;46523;-68
2022/04/02 05:11:50;;;;;;;;;13.50;11.75;;;;;0.66;82.06;100677.78;5055454;28;45360;-68
2022/04/02 05:14:16;;;;;;;;;9.75;9.25;;;;;0.67;79.14;100687.28;5055672;28;45290;-61
2022/04/02 05:16:42;;;;;;;;;8.25;7.00;;;;;0.64;80.48;100676.91;5055338;28;45257;-67
2022/04/02 05:19:07;;;;;;;;;10.00;9.75;;;;;0.64;81.53;100678.66;5055367;28;46024;-67
2022/04/02 05:21:33;;;;;;;;;5.50;5.50;;;;;0.65;81.08;100689.00;5055371;28;45442;-68
2022/04/02 05:23:58;;;;;;;;;7.00;6.50;;;;;0.64;79.58;100689.00;5055733;28;45308;-67
2022/04/02 05:26:23;;;;;;;;;13.75;10.00;;;;;0.63;81.14;100693.31;5055396;28;45548;-69
2022/04/02 05:28:49;;;;;;;;;11.25;9.25;;;;;0.65;81.46;100691.59;5053782;28;47039;-69
2022/04/02 05:31:15;;;;;;;;;10.00;9.75;;;;;0.65;79.07;100695.91;5055562;28;45304;-66
2022/04/02 05:33:40;;;;;;;;;10.25;10.00;;;;;0.67;80.84;100696.78;5055009;28;45471;-67
2022/04/02 05:36:05;;;;;;;;;10.00;10.00;;;;;0.65;81.09;100694.19;5037452;28;46012;-69
2022/04/02 05:38:31;;;;;;;;;8.75;8.75;;;;;0.67;82.42;100694.19;5055093;28;45984;-71
2022/04/02 05:40:56;;;;;;;;;7.25;7.25;;;;;0.72;81.46;100706.28;5055095;28;45589;-69
2022/04/02 05:43:22;;;;;;;;;9.75;9.00;;;;;0.74;81.84;100703.72;5054059;28;45414;-70
2022/04/02 05:45:47;;;;;;;;;12.50;10.00;;;;;0.76;80.60;100703.69;5054193;28;45580;-67
2022/04/02 05:48:12;;;;;;;;;11.25;9.75;;;;;0.75;80.44;100707.16;5055067;28;45450;-69
2022/04/02 05:50:38;;;;;;;;;9.00;9.00;;;;;0.73;79.60;100704.56;5055066;28;45430;-69
2022/04/02 05:53:04;;;;;;;;;10.25;8.75;;;;;0.76;80.68;100711.47;5055096;28;45399;-69
2022/04/02 05:55:30;;;;;;;;;12.50;10.75;;;;;0.75;80.04;100712.31;5055089;28;45362;-64
2022/04/02 05:57:57;;;;;;;;;12.25;9.25;;;;;0.78;80.56;100712.34;5054769;28;46347;-66
2022/04/02 06:00:23;;;;;;;;;14.00;11.50;;;;;0.79;80.71;100719.25;5053435;28;46197;-63
2022/04/02 06:02:49;;;;;;;;;12.25;10.00;;;;;0.76;80.14;100720.13;5055053;28;45305;-68
2022/04/02 06:05:15;;;;;;;;;11.75;9.75;;;;;0.83;80.42;100720.97;5037280;28;45577;-68
2022/04/02 06:07:41;;;;;;;;;9.50;7.00;;;;;0.85;78.47;100724.44;5054941;28;47507;-66
2022/04/02 06:10:09;;;;;;;;;8.50;8.50;;;;;0.89;79.83;100735.69;5054960;28;45315;-64
2022/04/02 06:12:34;;;;;;;;;10.25;9.00;;;;;0.91;80.23;100736.53;5054726;28;45382;-64
2022/04/02 06:15:00;;;;;;;;;15.00;10.75;;;;;0.94;79.96;100740.00;5055056;28;45549;-69
2022/04/02 06:17:27;;;;;;;;;11.00;8.25;;;;;0.94;79.27;100742.59;5036070;28;46492;-67
2022/04/02 06:19:53;;;;;;;;;9.50;8.50;;;;;0.99;79.43;100742.59;5054362;28;45522;-70
2022/04/02 06:22:18;;;;;;;;;11.75;9.25;;;;;1.01;80.44;100744.31;5054486;28;45321;-65
2022/04/02 06:24:44;;;;;;;;;12.25;11.75;;;;;0.97;80.34;100740.00;5054962;28;45642;-66
2022/04/02 06:27:09;;;;;;;;;9.75;8.25;;;;;1.08;80.45;100755.56;5037358;28;48143;-65
2022/04/02 06:29:35;;;;;;;;;10.25;9.75;;;;;1.14;81.50;100752.16;5058061;28;45233;-65
2022/04/02 06:32:00;;;;;;;;;9.75;9.75;;;;;1.19;81.31;100763.38;5059079;28;45386;-67
2022/04/02 06:34:26;;;;;;;;;11.50;10.00;;;;;1.24;79.41;100764.25;5058701;28;45438;-67
2022/04/02 06:36:51;;;;;;;;;11.50;9.50;;;;;1.25;79.71;100760.78;5057848;28;46164;-68
2022/04/02 06:39:17;;;;;;;;;11.75;10.00;;;;;1.28;80.67;100767.69;5057981;28;45386;-63
2022/04/02 06:41:43;;;;;;;;;7.00;7.00;;;;;1.25;79.54;100762.50;5057922;28;45403;-67
2022/04/02 06:44:08;;;;;;;;;5.25;5.25;;;;;1.28;80.28;100765.97;5058011;28;45541;-66
2022/04/02 06:46:37;;;;;;;;;8.50;8.50;;;;;1.33;80.02;100775.50;5057695;28;45481;-68
2022/04/02 06:49:03;;;;;;;;;8.75;8.75;;;;;1.35;79.62;100772.03;5057553;28;45394;-71
2022/04/02 06:51:29;;;;;;;;;11.75;8.00;;;;;1.36;78.54;100784.13;5057714;28;45302;-68
2022/04/02 06:53:54;;;;;;;;;11.50;9.00;;;;;1.41;78.14;100776.34;5056656;28;45319;-65
2022/04/02 06:56:20;;;;;;;;;9.25;7.00;;;;;1.42;80.02;100776.34;5057337;28;46135;-64
2022/04/02 06:58:45;;;;;;;;;8.25;7.00;;;;;1.45;77.20;100773.75;5057372;28;45367;-67
2022/04/02 07:01:11;;;;;;;;;9.00;8.75;;;;;1.50;78.04;100785.84;5055721;28;45340;-67
2022/04/02 07:03:37;;;;;;;;;8.75;8.75;;;;;1.53;79.87;100781.53;5057447;28;45327;-70
2022/04/02 07:06:03;;;;;;;;;8.00;8.00;;;;;1.55;77.63;100785.00;5022619;28;48429;-69
2022/04/02 07:08:29;;;;;;;;;9.50;9.00;;;;;1.58;76.87;100789.31;5056997;28;45336;-67
2022/04/02 07:10:54;;;;;;;;;4.00;4.00;;;;;1.64;77.81;100791.06;5055744;28;45415;-66
2022/04/02 07:13:19;;;;;;;;;9.50;9.50;;;;;1.67;78.87;100791.06;5057600;28;45319;-68
2022/04/02 07:15:45;;;;;;;;;7.75;7.75;;;;;1.73;78.78;100798.84;5056949;28;46197;-67
2022/04/02 07:18:10;;;;;;;;;9.25;7.75;;;;;1.74;78.98;100797.97;5057345;28;45768;-67
2022/04/02 07:20:39;;;;;;;;;10.25;9.50;;;;;1.85;78.46;100801.41;5055676;28;45418;-66
2022/04/02 07:23:09;;;;;;;;;9.50;6.50;;;;;1.93;79.12;100790.16;5057308;28;45371;-67
2022/04/02 07:25:39;;;;;;;;;8.00;8.00;;;;;2.00;76.43;100810.06;5055383;28;46032;-67
2022/04/02 07:28:05;;;;;;;;;6.25;6.25;;;;;2.03;73.23;100802.25;5057152;28;45194;-67
2022/04/02 07:30:33;;;;;;;;;10.00;8.25;;;;;2.10;76.26;100811.75;5056830;28;45432;-62
2022/04/02 07:32:59;;;;;;;;;10.75;9.25;;;;;2.17;77.84;100807.44;5056030;28;45443;-65
2022/04/02 07:35:25;;;;;;;;;8.25;8.25;;;;;2.21;75.24;100819.56;5038829;28;47951;-68
2022/04/02 07:38:16;;;;;;;;;8.00;8.00;;;;;2.30;74.20;100814.34;5039106;28;45684;-68
2022/04/02 07:40:51;;;;;;;;;13.50;9.75;;;;;2.40;76.63;100811.72;5057046;28;45399;-68
2022/04/02 07:43:39;;;;;;;;;10.50;5.75;;;;;2.44;74.32;100811.72;5056180;28;45485;-67
2022/04/02 07:46:20;;;;;;;;;11.50;10.00;;;;;2.56;76.14;100818.59;5038750;28;46085;-66
2022/04/02 07:48:48;;;;;;;;;10.00;8.00;;;;;2.63;75.43;100815.09;5045397;28;45317;-68
2022/04/02 07:51:15;;;;;;;;;6.00;6.00;;;;;2.70;73.65;100815.09;5057008;28;45371;-67
2022/04/02 07:53:47;;;;;;;;;9.00;8.50;;;;;2.75;71.46;100819.41;5057182;28;45238;-66
2022/04/02 07:56:18;;;;;;;;;7.50;7.50;;;;;2.77;72.49;100822.00;5055969;28;46496;-64
2022/04/02 07:58:47;;;;;;;;;10.25;8.25;;;;;2.87;70.85;100810.69;5056007;28;45461;-67
2022/04/02 08:01:15;;;;;;;;;10.50;9.00;;;;;2.97;75.50;100814.09;5056504;28;45477;-69
2022/04/02 08:03:44;;;;;;;;;11.50;7.75;;;;;3.09;73.48;100835.69;5076744;28;45543;-70
2022/04/02 08:06:12;;;;;;;;;6.25;6.25;;;;;3.19;74.54;100827.00;5060800;28;46001;-68
2022/04/02 08:08:38;;;;;;;;;9.00;9.00;;;;;3.28;74.57;100826.97;5043173;28;45500;-68
2022/04/02 08:11:03;;;;;;;;;7.00;6.50;;;;;3.40;71.79;100830.34;5053753;28;45409;-65
2022/04/02 08:13:30;;;;;;;;;12.25;8.00;;;;;3.46;70.48;100833.75;5056478;28;45674;-68
2022/04/02 08:15:57;;;;;;;;;14.00;11.50;;;;;3.46;72.48;100825.94;5055580;28;46911;-64
2022/04/02 08:18:26;;;;;;;;;11.25;9.50;;;;;3.56;71.88;100836.28;5056978;28;45389;-72
2022/04/02 08:20:52;;;;;;;;;11.50;7.50;;;;;3.64;71.20;100830.19;5056129;28;45366;-70
2022/04/02 08:23:18;;;;;;;;;6.00;6.00;;;;;3.71;71.22;100830.13;5056350;28;45376;-65
2022/04/02 08:25:51;;;;;;;;;8.75;6.25;;;;;3.76;71.10;100829.22;5055068;28;45851;-68
2022/04/02 08:28:26;;;;;;;;;7.25;7.25;;;;;3.81;67.30;100831.78;5056368;28;45280;-65
2022/04/02 08:31:06;;;;;;;;;12.25;7.00;;;;;3.89;67.73;100835.19;5057968;28;45432;-68
2022/04/02 08:34:13;;;;;;;;;7.75;7.75;;;;;4.02;67.18;100840.28;5062843;28;45252;-69
2022/04/02 08:36:47;;;;;;;;;7.75;6.00;;;;;4.15;64.19;100841.03;5064311;27;45434;-75
2022/04/02 08:39:40;;;;;;;;;5.50;5.50;;;;;4.19;64.07;100835.78;5063989;28;45231;-67
2022/04/02 08:42:35;;;;;;;;;6.00;6.00;;;;;4.24;64.96;100848.75;5064591;28;45227;-72
2022/04/02 08:45:10;;;;;;;;;13.75;11.75;;;;;4.31;65.15;100849.56;5028141;28;45277;-76
2022/04/02 08:48:00;;;;;;;;;6.50;5.00;;;;;4.35;66.63;100851.28;5055365;28;46098;-70
2022/04/02 08:50:36;;;;;;;;;6.00;4.75;;;;;4.41;62.34;100839.91;5054935;28;45486;-71
2022/04/02 08:53:33;;;;;;;;;7.00;6.00;;;;;4.50;59.47;100850.22;5055826;28;45482;-66
2022/04/02 08:56:03;;;;;;;;;3.50;3.50;;;;;4.57;65.36;100851.03;5054726;28;45433;-67
2022/04/02 08:58:34;;;;;;;;;5.00;5.00;;;;;4.65;64.79;100855.28;5036298;28;47434;-68
2022/04/02 09:01:24;;;;;;;;;3.50;3.50;;;;;4.62;59.56;100846.66;5054083;28;45505;-67
2022/04/02 09:04:24;;;;;;;;;7.25;5.75;;;;;4.68;59.23;100873.47;5026887;28;45358;-70
2022/04/02 09:07:01;;;;;;;;;7.00;7.00;;;;;4.74;62.09;100863.88;5037304;28;45320;-68
2022/04/02 09:09:50;;;;;;;;;8.00;3.25;;;;;4.62;58.41;100857.91;5054982;28;45340;-70
2022/04/02 09:12:47;;;;;;;;;8.00;6.50;;;;;4.66;60.44;100861.38;5036997;28;45421;-71
2022/04/02 09:15:23;;;;;;;;;8.00;6.25;;;;;4.70;62.81;100852.63;5055403;28;45457;-71
2022/04/02 09:18:01;;;;;;;;;7.75;7.50;;;;;4.89;60.25;100873.25;5038595;28;45500;-71
2022/04/02 09:21:00;;;;;;;;;8.00;8.00;;;;;4.96;62.68;100865.38;5036551;28;46522;-70
2022/04/02 09:23:28;;;;;;;;;5.50;5.50;;;;;5.23;61.39;100860.66;5055485;28;45481;-71
2022/04/02 09:26:04;;;;;;;;;7.00;7.00;;;;;5.39;60.37;100874.38;5053869;28;45429;-71
2022/04/02 09:28:42;;;;;;;;;8.75;7.00;;;;;5.47;56.97;100873.41;5054588;28;45501;-70
2022/04/02 09:31:32;;;;;;;;;8.00;6.00;;;;;5.47;59.14;100866.41;5039598;28;48167;-68
2022/04/02 09:34:19;;;;;;;;;6.00;6.00;;;;;5.44;62.21;100868.22;5036159;28;45383;-73
2022/04/02 09:37:20;;;;;;;;;7.75;7.75;;;;;5.47;62.28;100874.25;5036988;28;45550;-71
2022/04/02 09:40:05;;;;;;;;;6.00;6.00;;;;;5.46;60.09;100867.31;5050749;28;45613;-74
2022/04/02 09:42:42;;;;;;;;;9.50;7.75;;;;;5.40;62.52;100868.28;5036662;28;48715;-74
2022/04/02 09:45:10;;;;;;;;;6.00;6.00;;;;;5.37;59.73;100863.09;5054412;28;45434;-71
2022/04/02 09:47:48;;;;;;;;;4.25;4.25;;;;;5.34;60.26;100863.16;5054513;28;45490;-72
2022/04/02 09:50:16;;;;;;;;;11.25;10.00;;;;;5.37;59.98;100880.47;5044285;28;45501;-73
2022/04/02 09:52:55;;;;;;;;;5.00;5.00;;;;;5.47;51.46;100863.81;5041966;28;46177;-76
2022/04/02 09:55:26;;;;;;;;;4.25;4.25;;;;;5.65;57.79;100873.13;5043290;28;45329;-72
2022/04/02 09:58:20;;;;;;;;;9.00;6.00;;;;;5.75;52.77;100880.81;5042822;28;45613;-73
2022/04/02 10:01:08;;;;;;;;;6.25;5.00;;;;;5.89;50.88;100875.41;5026534;28;45577;-75
2022/04/02 10:04:02;;;;;;;;;5.75;5.75;;;;;6.10;56.44;100866.34;5030850;28;47400;-72
2022/04/02 10:06:48;;;;;;;;;9.50;9.50;;;;;6.45;58.41;100875.34;5055241;28;45448;-72
2022/04/02 10:09:14;;;;;;;;;13.00;9.75;;;;;6.67;50.80;100872.31;5044548;28;45451;-79
2022/04/02 10:11:55;;;;;;;;;8.00;8.00;;;;;6.72;54.56;100873.94;5033917;28;45515;-69
2022/04/02 10:14:23;;;;;;;;;5.25;5.25;;;;;6.83;59.63;100871.13;5029100;28;47219;-66
2022/04/02 10:17:01;;;;;;;;;9.00;7.00;;;;;7.08;57.56;100875.00;5040706;28;45416;-66
2022/04/02 10:19:31;;;;;;;;;6.75;6.75;;;;;7.31;59.76;100866.66;5057219;28;45471;-65
2022/04/02 10:22:01;;;;;;;;;4.50;4.50;;;;;7.30;54.17;100870.16;5048706;28;46274;-65
2022/04/02 10:24:33;;;;;;;;;7.00;7.00;;;;;7.11;56.08;100873.16;5057319;28;46359;-68
2022/04/02 10:27:02;;;;;;;;;10.00;7.50;;;;;6.86;54.60;100883.25;5047589;28;45400;-63
2022/04/02 10:30:01;;;;;;;;;8.00;6.50;;;;;6.95;54.03;100888.34;5045647;28;45338;-66
2022/04/02 10:32:38;;;;;;;;;7.00;7.00;;;;;7.10;54.35;100878.44;5039056;28;45501;-65
2022/04/02 10:35:07;;;;;;;;;6.25;5.00;;;;;7.05;56.76;100878.53;5046459;28;45352;-65
2022/04/02 10:37:41;;;;;;;;;9.00;7.00;;;;;7.05;50.89;100878.53;5012422;28;45499;-68
2022/04/02 10:40:18;;;;;;;;;7.25;6.00;;;;;7.03;54.42;100887.31;5056996;28;45398;-65
2022/04/02 10:42:52;;;;;;;;;7.50;7.50;;;;;6.91;51.33;100901.50;5038496;28;45652;-67
2022/04/02 10:45:20;;;;;;;;;6.00;6.00;;;;;6.99;56.13;100865.59;5046197;28;46247;-69
2022/04/02 10:47:56;;;;;;;;;6.00;6.00;;;;;7.03;47.99;100850.69;5044548;28;45537;-67
2022/04/02 10:50:25;;;;;;;;;8.75;7.00;;;;;7.12;49.44;100866.19;5056935;28;45443;-65
2022/04/02 10:52:51;;;;;;;;;6.00;5.00;;;;;7.03;46.08;100856.78;5056451;28;46144;-64
2022/04/02 10:55:21;;;;;;;;;8.75;5.75;;;;;7.00;51.57;100867.31;5037099;28;47263;-65
2022/04/02 10:57:47;;;;;;;;;6.25;6.25;;;;;7.02;48.92;100865.53;5052155;28;45450;-65
2022/04/02 11:00:13;;;;;;;;;16.75;11.75;;;;;7.15;46.47;100856.50;5051851;28;45586;-65
2022/04/02 11:02:41;;;;;;;;;35.75;31.00;;;;;7.39;52.76;100863.88;5052718;28;45596;-68
2022/04/02 11:05:14;;;;;;;;;6.50;6.00;;;;;7.62;48.69;100871.22;5056506;28;45363;-66
2022/04/02 11:07:44;;;;;;;;;8.50;8.50;;;;;7.64;51.94;100869.41;5053812;28;45556;-67
2022/04/02 11:10:18;;;;;;;;;6.00;3.00;;;;;7.77;50.39;100862.13;5061947;27;45524;-65
2022/04/02 11:12:45;;;;;;;;;8.25;3.75;;;;;7.84;53.56;100860.22;5057712;28;45348;-66
2022/04/02 11:15:19;;;;;;;;;4.00;4.00;;;;;8.14;48.41;100855.09;5066576;28;46912;-66
2022/04/02 11:17:48;;;;;;;;;5.00;5.00;;;;;8.32;49.37;100853.78;5056599;28;45355;-66
2022/04/02 11:20:20;;;;;;;;;7.25;6.00;;;;;8.33;53.22;100869.44;5057116;28;45335;-65
2022/04/02 11:22:51;;;;;;;;;5.00;5.00;;;;;8.12;46.01;100849.06;5056798;28;45344;-67
2022/04/02 11:25:23;;;;;;;;;9.00;8.00;;;;;7.83;50.55;100879.44;5056350;28;45596;-67
2022/04/02 11:27:55;;;;;;;;;5.00;3.00;;;;;7.93;49.63;100854.75;5055439;28;45514;-68
2022/04/02 11:30:26;;;;;;;;;6.50;5.00;;;;;8.21;48.83;100864.53;5056952;28;45450;-66
2022/04/02 11:32:52;;;;;;;;;8.50;8.50;;;;;8.19;43.11;100854.09;5036830;28;45363;-69
2022/04/02 11:35:22;;;;;;;;;5.00;5.00;;;;;8.41;49.56;100865.75;5036292;28;46091;-67
2022/04/02 11:38:01;;;;;;;;;9.00;7.75;;;;;8.70;45.64;100872.03;5018683;28;45345;-65
2022/04/02 11:40:29;;;;;;;;;10.00;7.00;;;;;8.82;40.62;100861.19;5038993;28;45490;-66
2022/04/02 11:42:59;;;;;;;;;6.50;5.50;;;;;8.64;42.32;100869.59;5035927;28;45442;-64
2022/04/02 11:45:25;;;;;;;;;8.00;8.00;;;;;8.57;50.12;100867.13;5035936;28;45614;-67
2022/04/02 11:47:58;;;;;;;;;5.00;5.00;;;;;8.59;48.69;100872.31;5042901;28;45266;-66